sensor_id;sensor_type;location;lat;lon;timestamp;P1;durP1;ratioP1;P2;durP2;ratioP2
70213;SDS011;60138;55.808;37.078;2022-08-01T00:01:35;7.93;;;5.60;;
70213;SDS011;60138;55.808;37.078;2022-08-01T00:04:00;11.57;;;5.65;;
70213;SDS011;60138;55.808;37.078;2022-08-01T00:06:26;11.93;;;5.38;;
70213;SDS011;60138;55.808;37.078;2022-08-01T00:08:52;8.95;;;6.25;;
70213;SDS011;60138;55.808;37.078;2022-08-01T00:11:18;9.93;;;5.43;;
70213;SDS011;60138;55.808;37.078;2022-08-01T00:13:43;11.55;;;5.75;;
70213;SDS011;60138;55.808;37.078;2022-08-01T00:16:09;13.47;;;5.90;;
70213;SDS011;60138;55.808;37.078;2022-08-01T00:18:35;9.48;;;5.63;;
70213;SDS011;60138;55.808;37.078;2022-08-01T00:21:01;8.87;;;5.27;;
70213;SDS011;60138;55.808;37.078;2022-08-01T00:23:27;13.40;;;7.10;;
70213;SDS011;60138;55.808;37.078;2022-08-01T00:25:53;12.37;;;5.63;;
70213;SDS011;60138;55.808;37.078;2022-08-01T00:28:19;10.30;;;5.85;;
70213;SDS011;60138;55.808;37.078;2022-08-01T00:30:44;9.37;;;6.03;;
70213;SDS011;60138;55.808;37.078;2022-08-01T00:33:10;11.10;;;6.30;;
70213;SDS011;60138;55.808;37.078;2022-08-01T00:35:36;10.90;;;6.27;;
70213;SDS011;60138;55.808;37.078;2022-08-01T00:38:01;9.85;;;5.80;;
70213;SDS011;60138;55.808;37.078;2022-08-01T00:40:27;11.73;;;5.33;;
70213;SDS011;60138;55.808;37.078;2022-08-01T00:42:53;10.02;;;5.47;;
70213;SDS011;60138;55.808;37.078;2022-08-01T00:45:19;9.27;;;5.20;;
70213;SDS011;60138;55.808;37.078;2022-08-01T00:47:45;9.35;;;6.20;;
70213;SDS011;60138;55.808;37.078;2022-08-01T00:50:10;12.03;;;5.83;;
70213;SDS011;60138;55.808;37.078;2022-08-01T00:52:36;8.45;;;4.70;;
70213;SDS011;60138;55.808;37.078;2022-08-01T00:55:04;8.38;;;5.20;;
70213;SDS011;60138;55.808;37.078;2022-08-01T00:57:30;9.98;;;5.95;;
70213;SDS011;60138;55.808;37.078;2022-08-01T00:59:57;12.87;;;5.73;;
70213;SDS011;60138;55.808;37.078;2022-08-01T09:19:35;8.07;;;2.33;;
70213;SDS011;60138;55.808;37.078;2022-08-01T09:22:03;5.38;;;2.15;;
70213;SDS011;60138;55.808;37.078;2022-08-01T09:24:30;4.65;;;2.17;;
70213;SDS011;60138;55.808;37.078;2022-08-01T09:26:57;6.32;;;2.47;;
70213;SDS011;60138;55.808;37.078;2022-08-01T09:29:28;5.07;;;2.33;;
70213;SDS011;60138;55.808;37.078;2022-08-01T09:31:55;7.03;;;1.90;;
70213;SDS011;60138;55.808;37.078;2022-08-01T09:34:39;4.88;;;2.20;;
70213;SDS011;60138;55.808;37.078;2022-08-01T09:37:06;6.72;;;1.90;;
70213;SDS011;60138;55.808;37.078;2022-08-01T09:39:39;6.28;;;2.15;;
70213;SDS011;60138;55.808;37.078;2022-08-01T09:44:50;5.65;;;2.00;;
70213;SDS011;60138;55.808;37.078;2022-08-01T09:47:19;5.55;;;2.00;;
70213;SDS011;60138;55.808;37.078;2022-08-01T09:49:53;5.40;;;2.10;;
70213;SDS011;60138;55.808;37.078;2022-08-01T09:52:22;5.17;;;2.40;;
70213;SDS011;60138;55.808;37.078;2022-08-01T09:54:59;4.25;;;2.05;;
70213;SDS011;60138;55.808;37.078;2022-08-01T09:57:29;108.30;;;20.23;;
70213;SDS011;60138;55.808;37.078;2022-08-01T09:59:55;21.17;;;5.37;;
70213;SDS011;60138;55.808;37.078;2022-08-01T10:02:32;8.98;;;2.90;;
70213;SDS011;60138;55.808;37.078;2022-08-01T10:05:04;6.28;;;3.17;;
70213;SDS011;60138;55.808;37.078;2022-08-01T10:07:31;7.25;;;2.83;;
70213;SDS011;60138;55.808;37.078;2022-08-01T10:10:11;6.53;;;2.90;;
70213;SDS011;60138;55.808;37.078;2022-08-01T10:12:38;19.80;;;4.43;;
70213;SDS011;60138;55.808;37.078;2022-08-01T10:15:05;5.85;;;2.00;;
70213;SDS011;60138;55.808;37.078;2022-08-01T10:17:33;8.20;;;2.42;;
70213;SDS011;60138;55.808;37.078;2022-08-01T10:19:59;5.50;;;2.20;;
70213;SDS011;60138;55.808;37.078;2022-08-01T10:22:29;4.28;;;1.95;;
70213;SDS011;60138;55.808;37.078;2022-08-01T10:24:56;11.77;;;2.90;;
70213;SDS011;60138;55.808;37.078;2022-08-01T10:27:29;8.30;;;3.22;;
70213;SDS011;60138;55.808;37.078;2022-08-01T10:30:00;8.40;;;2.40;;
70213;SDS011;60138;55.808;37.078;2022-08-01T10:32:31;10.55;;;2.83;;
70213;SDS011;60138;55.808;37.078;2022-08-01T10:34:59;6.80;;;2.13;;
70213;SDS011;60138;55.808;37.078;2022-08-01T10:37:26;29.73;;;7.07;;
70213;SDS011;60138;55.808;37.078;2022-08-01T10:39:52;9.75;;;3.13;;
70213;SDS011;60138;55.808;37.078;2022-08-01T10:42:19;9.20;;;2.72;;
70213;SDS011;60138;55.808;37.078;2022-08-01T10:44:45;9.88;;;4.00;;
70213;SDS011;60138;55.808;37.078;2022-08-01T10:47:12;6.35;;;2.13;;
70213;SDS011;60138;55.808;37.078;2022-08-01T10:50:07;8.43;;;2.00;;
70213;SDS011;60138;55.808;37.078;2022-08-01T10:52:40;4.47;;;1.80;;
70213;SDS011;60138;55.808;37.078;2022-08-01T10:55:07;5.20;;;1.85;;
70213;SDS011;60138;55.808;37.078;2022-08-01T10:57:43;3.47;;;1.60;;
70213;SDS011;60138;55.808;37.078;2022-08-01T11:00:20;5.32;;;1.75;;
70213;SDS011;60138;55.808;37.078;2022-08-01T11:02:57;5.10;;;1.90;;
70213;SDS011;60138;55.808;37.078;2022-08-01T11:05:27;8.60;;;2.30;;
70213;SDS011;60138;55.808;37.078;2022-08-01T11:07:56;9.95;;;2.67;;
70213;SDS011;60138;55.808;37.078;2022-08-01T11:10:38;5.93;;;2.10;;
70213;SDS011;60138;55.808;37.078;2022-08-01T11:13:04;12.13;;;2.40;;
70213;SDS011;60138;55.808;37.078;2022-08-01T11:15:30;56.63;;;10.45;;
70213;SDS011;60138;55.808;37.078;2022-08-01T11:17:56;31.50;;;5.40;;
70213;SDS011;60138;55.808;37.078;2022-08-01T11:20:27;20.05;;;4.82;;
70213;SDS011;60138;55.808;37.078;2022-08-01T11:30:43;8.05;;;2.10;;
70213;SDS011;60138;55.808;37.078;2022-08-01T11:33:10;6.38;;;1.98;;
70213;SDS011;60138;55.808;37.078;2022-08-01T11:35:37;7.40;;;1.90;;
70213;SDS011;60138;55.808;37.078;2022-08-01T11:38:22;3.85;;;1.70;;
70213;SDS011;60138;55.808;37.078;2022-08-01T11:41:35;6.85;;;2.28;;
70213;SDS011;60138;55.808;37.078;2022-08-01T11:59:53;5.93;;;2.38;;
70213;SDS011;60138;55.808;37.078;2022-08-01T12:02:21;7.13;;;2.00;;
70213;SDS011;60138;55.808;37.078;2022-08-01T12:07:25;5.30;;;2.00;;
70213;SDS011;60138;55.808;37.078;2022-08-01T12:12:29;6.10;;;1.77;;
70213;SDS011;60138;55.808;37.078;2022-08-01T12:15:00;4.60;;;1.80;;
70213;SDS011;60138;55.808;37.078;2022-08-01T12:19:58;5.43;;;1.90;;
70213;SDS011;60138;55.808;37.078;2022-08-01T12:22:24;3.38;;;1.50;;
70213;SDS011;60138;55.808;37.078;2022-08-01T12:24:51;4.25;;;1.80;;
70213;SDS011;60138;55.808;37.078;2022-08-01T12:27:24;6.53;;;2.10;;
70213;SDS011;60138;55.808;37.078;2022-08-01T12:29:55;6.15;;;2.50;;
70213;SDS011;60138;55.808;37.078;2022-08-01T12:32:22;6.82;;;2.97;;
70213;SDS011;60138;55.808;37.078;2022-08-01T12:34:51;7.80;;;3.10;;
70213;SDS011;60138;55.808;37.078;2022-08-01T12:37:18;7.15;;;3.00;;
70213;SDS011;60138;55.808;37.078;2022-08-01T12:39:45;6.57;;;2.40;;
70213;SDS011;60138;55.808;37.078;2022-08-01T12:42:11;6.15;;;1.88;;
70213;SDS011;60138;55.808;37.078;2022-08-01T12:44:37;4.22;;;1.70;;
70213;SDS011;60138;55.808;37.078;2022-08-01T12:47:07;4.35;;;1.58;;
70213;SDS011;60138;55.808;37.078;2022-08-01T12:49:37;5.15;;;2.00;;
70213;SDS011;60138;55.808;37.078;2022-08-01T12:52:04;19.60;;;4.87;;
70213;SDS011;60138;55.808;37.078;2022-08-01T12:54:30;4.88;;;1.67;;
70213;SDS011;60138;55.808;37.078;2022-08-01T12:57:23;17.30;;;3.55;;
70213;SDS011;60138;55.808;37.078;2022-08-01T12:59:52;6.72;;;2.25;;
70213;SDS011;60138;55.808;37.078;2022-08-01T13:02:18;4.47;;;1.90;;
70213;SDS011;60138;55.808;37.078;2022-08-01T13:04:51;4.13;;;1.70;;
70213;SDS011;60138;55.808;37.078;2022-08-01T13:07:17;4.25;;;1.60;;
70213;SDS011;60138;55.808;37.078;2022-08-01T13:09:49;3.97;;;1.63;;
70213;SDS011;60138;55.808;37.078;2022-08-01T13:12:15;5.20;;;1.80;;
70213;SDS011;60138;55.808;37.078;2022-08-01T13:14:41;5.00;;;1.50;;
70213;SDS011;60138;55.808;37.078;2022-08-01T13:17:07;2.47;;;1.33;;
70213;SDS011;60138;55.808;37.078;2022-08-01T13:19:43;5.60;;;1.80;;
70213;SDS011;60138;55.808;37.078;2022-08-01T13:22:09;3.97;;;1.60;;
70213;SDS011;60138;55.808;37.078;2022-08-01T13:24:35;4.60;;;2.13;;
70213;SDS011;60138;55.808;37.078;2022-08-01T13:27:01;8.73;;;5.77;;
70213;SDS011;60138;55.808;37.078;2022-08-01T13:29:33;8.25;;;4.13;;
70213;SDS011;60138;55.808;37.078;2022-08-01T13:35:05;4.30;;;1.77;;
70213;SDS011;60138;55.808;37.078;2022-08-01T13:37:32;3.50;;;1.77;;
70213;SDS011;60138;55.808;37.078;2022-08-01T13:39:59;4.57;;;1.57;;
70213;SDS011;60138;55.808;37.078;2022-08-01T13:42:25;3.60;;;1.80;;
70213;SDS011;60138;55.808;37.078;2022-08-01T13:44:51;5.35;;;1.73;;
70213;SDS011;60138;55.808;37.078;2022-08-01T13:47:17;6.80;;;2.03;;
70213;SDS011;60138;55.808;37.078;2022-08-01T13:49:43;7.47;;;2.40;;
70213;SDS011;60138;55.808;37.078;2022-08-01T13:52:09;5.67;;;1.80;;
70213;SDS011;60138;55.808;37.078;2022-08-01T13:54:34;3.88;;;1.60;;
70213;SDS011;60138;55.808;37.078;2022-08-01T13:57:00;6.32;;;1.73;;
70213;SDS011;60138;55.808;37.078;2022-08-01T13:59:26;6.97;;;3.37;;
70213;SDS011;60138;55.808;37.078;2022-08-01T14:01:52;4.25;;;1.98;;
70213;SDS011;60138;55.808;37.078;2022-08-01T14:04:17;5.40;;;1.73;;
70213;SDS011;60138;55.808;37.078;2022-08-01T14:06:43;4.63;;;1.70;;
70213;SDS011;60138;55.808;37.078;2022-08-01T14:09:09;5.57;;;1.90;;
70213;SDS011;60138;55.808;37.078;2022-08-01T14:11:35;5.70;;;2.00;;
70213;SDS011;60138;55.808;37.078;2022-08-01T14:14:00;5.70;;;1.90;;
70213;SDS011;60138;55.808;37.078;2022-08-01T14:16:26;8.77;;;1.80;;
70213;SDS011;60138;55.808;37.078;2022-08-01T14:18:52;4.33;;;1.50;;
70213;SDS011;60138;55.808;37.078;2022-08-01T14:21:17;5.38;;;2.40;;
70213;SDS011;60138;55.808;37.078;2022-08-01T14:23:43;7.47;;;3.53;;
70213;SDS011;60138;55.808;37.078;2022-08-01T14:26:09;8.82;;;5.22;;
70213;SDS011;60138;55.808;37.078;2022-08-01T14:28:39;8.33;;;4.00;;
70213;SDS011;60138;55.808;37.078;2022-08-01T14:31:05;8.63;;;4.40;;
70213;SDS011;60138;55.808;37.078;2022-08-01T14:33:31;6.63;;;3.55;;
70213;SDS011;60138;55.808;37.078;2022-08-01T14:35:57;7.53;;;2.20;;
70213;SDS011;60138;55.808;37.078;2022-08-01T14:38:23;5.87;;;2.40;;
70213;SDS011;60138;55.808;37.078;2022-08-01T14:40:49;5.88;;;2.78;;
70213;SDS011;60138;55.808;37.078;2022-08-01T14:43:14;9.47;;;1.90;;
70213;SDS011;60138;55.808;37.078;2022-08-01T14:45:40;6.10;;;1.67;;
70213;SDS011;60138;55.808;37.078;2022-08-01T14:48:06;3.83;;;1.70;;
70213;SDS011;60138;55.808;37.078;2022-08-01T14:50:31;7.88;;;2.10;;
70213;SDS011;60138;55.808;37.078;2022-08-01T14:52:57;5.33;;;1.90;;
70213;SDS011;60138;55.808;37.078;2022-08-01T14:55:23;3.97;;;2.03;;
70213;SDS011;60138;55.808;37.078;2022-08-01T14:57:49;7.17;;;2.47;;
70213;SDS011;60138;55.808;37.078;2022-08-01T15:00:15;6.00;;;2.80;;
70213;SDS011;60138;55.808;37.078;2022-08-01T15:02:41;4.63;;;1.88;;
70213;SDS011;60138;55.808;37.078;2022-08-01T15:05:07;5.57;;;2.17;;
70213;SDS011;60138;55.808;37.078;2022-08-01T15:07:34;5.22;;;1.88;;
70213;SDS011;60138;55.808;37.078;2022-08-01T15:10:00;4.57;;;1.80;;
70213;SDS011;60138;55.808;37.078;2022-08-01T15:12:28;6.18;;;1.70;;
70213;SDS011;60138;55.808;37.078;2022-08-01T15:14:54;8.98;;;2.15;;
70213;SDS011;60138;55.808;37.078;2022-08-01T15:17:21;7.37;;;1.70;;
70213;SDS011;60138;55.808;37.078;2022-08-01T15:19:49;6.00;;;2.97;;
70213;SDS011;60138;55.808;37.078;2022-08-01T15:22:17;6.38;;;2.13;;
70213;SDS011;60138;55.808;37.078;2022-08-01T15:24:47;7.20;;;2.40;;
70213;SDS011;60138;55.808;37.078;2022-08-01T15:27:14;6.37;;;2.20;;
70213;SDS011;60138;55.808;37.078;2022-08-01T15:29:40;5.57;;;2.00;;
70213;SDS011;60138;55.808;37.078;2022-08-01T15:32:06;5.72;;;2.35;;
70213;SDS011;60138;55.808;37.078;2022-08-01T15:34:33;5.35;;;2.47;;
70213;SDS011;60138;55.808;37.078;2022-08-01T15:36:59;7.30;;;1.90;;
70213;SDS011;60138;55.808;37.078;2022-08-01T15:39:25;6.88;;;2.38;;
70213;SDS011;60138;55.808;37.078;2022-08-01T15:41:50;8.50;;;2.60;;
70213;SDS011;60138;55.808;37.078;2022-08-01T15:44:16;7.43;;;3.47;;
70213;SDS011;60138;55.808;37.078;2022-08-01T15:46:42;5.32;;;3.00;;
70213;SDS011;60138;55.808;37.078;2022-08-01T15:49:08;7.03;;;3.60;;
70213;SDS011;60138;55.808;37.078;2022-08-01T15:51:33;18.67;;;13.82;;
70213;SDS011;60138;55.808;37.078;2022-08-01T15:53:59;12.73;;;8.40;;
70213;SDS011;60138;55.808;37.078;2022-08-01T15:56:25;10.75;;;5.90;;
70213;SDS011;60138;55.808;37.078;2022-08-01T15:58:50;8.87;;;4.20;;
70213;SDS011;60138;55.808;37.078;2022-08-01T16:01:16;9.70;;;4.18;;
70213;SDS011;60138;55.808;37.078;2022-08-01T16:03:42;8.33;;;3.60;;
70213;SDS011;60138;55.808;37.078;2022-08-01T16:06:07;7.55;;;3.10;;
70213;SDS011;60138;55.808;37.078;2022-08-01T16:08:33;6.00;;;3.03;;
70213;SDS011;60138;55.808;37.078;2022-08-01T16:10:59;4.70;;;2.58;;
70213;SDS011;60138;55.808;37.078;2022-08-01T16:13:24;3.77;;;2.20;;
70213;SDS011;60138;55.808;37.078;2022-08-01T16:15:50;7.13;;;2.55;;
70213;SDS011;60138;55.808;37.078;2022-08-01T16:18:16;9.03;;;2.50;;
70213;SDS011;60138;55.808;37.078;2022-08-01T16:20:42;7.33;;;2.57;;
70213;SDS011;60138;55.808;37.078;2022-08-01T16:23:07;7.07;;;3.73;;
70213;SDS011;60138;55.808;37.078;2022-08-01T16:25:33;7.20;;;4.32;;
70213;SDS011;60138;55.808;37.078;2022-08-01T16:27:59;11.85;;;5.57;;
70213;SDS011;60138;55.808;37.078;2022-08-01T16:30:25;7.80;;;4.97;;
70213;SDS011;60138;55.808;37.078;2022-08-01T16:32:51;17.55;;;8.07;;
70213;SDS011;60138;55.808;37.078;2022-08-01T16:35:16;11.67;;;6.13;;
70213;SDS011;60138;55.808;37.078;2022-08-01T16:37:42;10.65;;;6.40;;
70213;SDS011;60138;55.808;37.078;2022-08-01T16:40:08;10.40;;;5.80;;
70213;SDS011;60138;55.808;37.078;2022-08-01T16:42:34;7.53;;;3.80;;
70213;SDS011;60138;55.808;37.078;2022-08-01T16:44:59;8.57;;;3.70;;
70213;SDS011;60138;55.808;37.078;2022-08-01T16:47:25;9.23;;;3.08;;
70213;SDS011;60138;55.808;37.078;2022-08-01T16:49:51;8.93;;;2.95;;
70213;SDS011;60138;55.808;37.078;2022-08-01T16:52:16;9.50;;;2.97;;
70213;SDS011;60138;55.808;37.078;2022-08-01T16:54:42;6.03;;;2.50;;
70213;SDS011;60138;55.808;37.078;2022-08-01T16:57:08;8.38;;;2.95;;
70213;SDS011;60138;55.808;37.078;2022-08-01T16:59:34;6.47;;;2.92;;
70213;SDS011;60138;55.808;37.078;2022-08-01T17:02:00;6.17;;;2.63;;
70213;SDS011;60138;55.808;37.078;2022-08-01T17:04:26;6.88;;;3.00;;
70213;SDS011;60138;55.808;37.078;2022-08-01T17:06:51;8.10;;;2.63;;
70213;SDS011;60138;55.808;37.078;2022-08-01T17:09:18;7.55;;;2.72;;
70213;SDS011;60138;55.808;37.078;2022-08-01T17:11:43;5.43;;;2.58;;
70213;SDS011;60138;55.808;37.078;2022-08-01T17:14:09;7.77;;;2.80;;
70213;SDS011;60138;55.808;37.078;2022-08-01T17:16:35;4.95;;;2.30;;
70213;SDS011;60138;55.808;37.078;2022-08-01T17:19:00;4.77;;;2.33;;
70213;SDS011;60138;55.808;37.078;2022-08-01T17:21:26;7.57;;;2.33;;
70213;SDS011;60138;55.808;37.078;2022-08-01T17:23:52;7.00;;;2.50;;
70213;SDS011;60138;55.808;37.078;2022-08-01T17:26:18;6.68;;;2.20;;
70213;SDS011;60138;55.808;37.078;2022-08-01T17:28:43;9.98;;;2.80;;
70213;SDS011;60138;55.808;37.078;2022-08-01T17:31:09;5.40;;;2.90;;
70213;SDS011;60138;55.808;37.078;2022-08-01T17:33:35;7.22;;;2.60;;
70213;SDS011;60138;55.808;37.078;2022-08-01T17:36:01;6.33;;;2.67;;
70213;SDS011;60138;55.808;37.078;2022-08-01T17:38:26;9.03;;;2.57;;
70213;SDS011;60138;55.808;37.078;2022-08-01T17:40:52;9.80;;;2.80;;
70213;SDS011;60138;55.808;37.078;2022-08-01T17:43:18;11.30;;;3.60;;
70213;SDS011;60138;55.808;37.078;2022-08-01T17:45:43;8.38;;;2.90;;
70213;SDS011;60138;55.808;37.078;2022-08-01T17:48:09;6.75;;;3.65;;
70213;SDS011;60138;55.808;37.078;2022-08-01T17:50:35;6.47;;;3.03;;
70213;SDS011;60138;55.808;37.078;2022-08-01T17:53:00;7.63;;;3.20;;
70213;SDS011;60138;55.808;37.078;2022-08-01T17:55:26;8.38;;;3.15;;
70213;SDS011;60138;55.808;37.078;2022-08-01T17:57:53;8.10;;;3.07;;
70213;SDS011;60138;55.808;37.078;2022-08-01T18:00:19;6.07;;;3.15;;
70213;SDS011;60138;55.808;37.078;2022-08-01T18:02:44;5.90;;;3.20;;
70213;SDS011;60138;55.808;37.078;2022-08-01T18:05:10;9.60;;;3.10;;
70213;SDS011;60138;55.808;37.078;2022-08-01T18:07:35;8.40;;;3.23;;
70213;SDS011;60138;55.808;37.078;2022-08-01T18:10:01;8.73;;;3.38;;
70213;SDS011;60138;55.808;37.078;2022-08-01T18:12:28;6.22;;;3.70;;
70213;SDS011;60138;55.808;37.078;2022-08-01T18:14:54;8.27;;;3.83;;
70213;SDS011;60138;55.808;37.078;2022-08-01T18:17:20;9.57;;;4.20;;
70213;SDS011;60138;55.808;37.078;2022-08-01T18:19:46;7.97;;;4.07;;
70213;SDS011;60138;55.808;37.078;2022-08-01T18:22:11;7.00;;;4.00;;
70213;SDS011;60138;55.808;37.078;2022-08-01T18:24:37;8.95;;;4.05;;
70213;SDS011;60138;55.808;37.078;2022-08-01T18:27:03;10.83;;;4.20;;
70213;SDS011;60138;55.808;37.078;2022-08-01T18:29:29;9.40;;;3.92;;
70213;SDS011;60138;55.808;37.078;2022-08-01T18:31:54;10.30;;;4.30;;
70213;SDS011;60138;55.808;37.078;2022-08-01T18:34:20;8.32;;;4.13;;
70213;SDS011;60138;55.808;37.078;2022-08-01T18:36:46;11.70;;;4.35;;
70213;SDS011;60138;55.808;37.078;2022-08-01T18:39:12;10.90;;;3.73;;
70213;SDS011;60138;55.808;37.078;2022-08-01T18:41:38;11.13;;;4.73;;
70213;SDS011;60138;55.808;37.078;2022-08-01T18:44:03;10.05;;;4.20;;
70213;SDS011;60138;55.808;37.078;2022-08-01T18:46:30;10.57;;;4.25;;
70213;SDS011;60138;55.808;37.078;2022-08-01T18:48:56;10.60;;;4.80;;
70213;SDS011;60138;55.808;37.078;2022-08-01T18:51:21;8.50;;;4.13;;
70213;SDS011;60138;55.808;37.078;2022-08-01T18:53:47;10.18;;;4.78;;
70213;SDS011;60138;55.808;37.078;2022-08-01T18:56:13;15.63;;;4.83;;
70213;SDS011;60138;55.808;37.078;2022-08-01T18:58:42;11.15;;;4.38;;
70213;SDS011;60138;55.808;37.078;2022-08-01T19:01:07;8.83;;;3.83;;
70213;SDS011;60138;55.808;37.078;2022-08-01T19:03:33;12.40;;;3.70;;
70213;SDS011;60138;55.808;37.078;2022-08-01T19:05:59;9.98;;;4.72;;
70213;SDS011;60138;55.808;37.078;2022-08-01T19:08:25;10.13;;;4.27;;
70213;SDS011;60138;55.808;37.078;2022-08-01T19:10:51;7.90;;;4.53;;
70213;SDS011;60138;55.808;37.078;2022-08-01T19:13:16;15.43;;;4.87;;
70213;SDS011;60138;55.808;37.078;2022-08-01T19:15:42;10.82;;;5.07;;
70213;SDS011;60138;55.808;37.078;2022-08-01T19:18:08;11.43;;;4.82;;
70213;SDS011;60138;55.808;37.078;2022-08-01T19:20:34;10.83;;;4.83;;
70213;SDS011;60138;55.808;37.078;2022-08-01T19:23:00;11.50;;;4.43;;
70213;SDS011;60138;55.808;37.078;2022-08-01T19:25:25;12.23;;;6.17;;
70213;SDS011;60138;55.808;37.078;2022-08-01T19:27:51;11.27;;;5.35;;
70213;SDS011;60138;55.808;37.078;2022-08-01T19:30:19;16.93;;;6.03;;
70213;SDS011;60138;55.808;37.078;2022-08-01T19:32:45;8.90;;;4.50;;
70213;SDS011;60138;55.808;37.078;2022-08-01T19:35:12;9.02;;;4.75;;
70213;SDS011;60138;55.808;37.078;2022-08-01T19:37:40;13.90;;;4.23;;
70213;SDS011;60138;55.808;37.078;2022-08-01T19:40:06;9.38;;;4.22;;
70213;SDS011;60138;55.808;37.078;2022-08-01T19:42:32;12.30;;;4.20;;
70213;SDS011;60138;55.808;37.078;2022-08-01T19:44:58;12.67;;;5.20;;
70213;SDS011;60138;55.808;37.078;2022-08-01T19:47:24;18.75;;;5.63;;
70213;SDS011;60138;55.808;37.078;2022-08-01T19:49:50;12.52;;;5.97;;
70213;SDS011;60138;55.808;37.078;2022-08-01T19:52:16;9.87;;;5.47;;
70213;SDS011;60138;55.808;37.078;2022-08-01T19:54:48;11.13;;;5.95;;
70213;SDS011;60138;55.808;37.078;2022-08-01T19:57:16;13.82;;;6.13;;
70213;SDS011;60138;55.808;37.078;2022-08-01T19:59:42;13.13;;;5.83;;
70213;SDS011;60138;55.808;37.078;2022-08-01T20:02:10;8.85;;;5.10;;
70213;SDS011;60138;55.808;37.078;2022-08-01T20:04:41;11.00;;;6.03;;
70213;SDS011;60138;55.808;37.078;2022-08-01T20:07:07;18.98;;;5.95;;
70213;SDS011;60138;55.808;37.078;2022-08-01T20:09:33;10.38;;;5.60;;
70213;SDS011;60138;55.808;37.078;2022-08-01T20:11:59;17.23;;;5.03;;
70213;SDS011;60138;55.808;37.078;2022-08-01T20:14:25;11.07;;;5.18;;
70213;SDS011;60138;55.808;37.078;2022-08-01T20:16:52;11.98;;;5.63;;
70213;SDS011;60138;55.808;37.078;2022-08-01T20:19:20;13.60;;;5.40;;
70213;SDS011;60138;55.808;37.078;2022-08-01T20:21:48;11.95;;;5.32;;
70213;SDS011;60138;55.808;37.078;2022-08-01T20:24:19;11.82;;;6.10;;
70213;SDS011;60138;55.808;37.078;2022-08-01T20:26:46;13.75;;;5.88;;
70213;SDS011;60138;55.808;37.078;2022-08-01T20:29:13;10.30;;;5.15;;
70213;SDS011;60138;55.808;37.078;2022-08-01T20:31:42;11.93;;;5.50;;
70213;SDS011;60138;55.808;37.078;2022-08-01T20:34:13;11.02;;;5.00;;
70213;SDS011;60138;55.808;37.078;2022-08-01T20:36:42;19.85;;;6.32;;
70213;SDS011;60138;55.808;37.078;2022-08-01T20:39:08;10.85;;;5.13;;
70213;SDS011;60138;55.808;37.078;2022-08-01T20:41:37;12.13;;;6.13;;
70213;SDS011;60138;55.808;37.078;2022-08-01T20:44:03;14.93;;;5.77;;
70213;SDS011;60138;55.808;37.078;2022-08-01T20:46:29;13.52;;;5.97;;
70213;SDS011;60138;55.808;37.078;2022-08-01T20:48:56;12.43;;;5.82;;
70213;SDS011;60138;55.808;37.078;2022-08-01T20:51:26;13.95;;;6.00;;
70213;SDS011;60138;55.808;37.078;2022-08-01T20:53:54;11.55;;;6.40;;
70213;SDS011;60138;55.808;37.078;2022-08-01T20:56:24;13.07;;;5.20;;
70213;SDS011;60138;55.808;37.078;2022-08-01T20:59:06;19.08;;;5.47;;
70213;SDS011;60138;55.808;37.078;2022-08-01T21:01:35;14.30;;;6.55;;
70213;SDS011;60138;55.808;37.078;2022-08-01T21:04:17;15.15;;;5.95;;
70213;SDS011;60138;55.808;37.078;2022-08-01T21:07:05;13.90;;;5.75;;
70213;SDS011;60138;55.808;37.078;2022-08-01T21:09:42;15.93;;;5.60;;
70213;SDS011;60138;55.808;37.078;2022-08-01T21:12:14;11.10;;;5.47;;
70213;SDS011;60138;55.808;37.078;2022-08-01T21:14:51;11.15;;;6.00;;
70213;SDS011;60138;55.808;37.078;2022-08-01T21:17:28;11.75;;;5.75;;
70213;SDS011;60138;55.808;37.078;2022-08-01T21:20:02;11.55;;;6.00;;
70213;SDS011;60138;55.808;37.078;2022-08-01T21:22:35;12.00;;;6.13;;
70213;SDS011;60138;55.808;37.078;2022-08-01T21:25:03;14.60;;;5.68;;
70213;SDS011;60138;55.808;37.078;2022-08-01T21:27:32;12.68;;;6.22;;
70213;SDS011;60138;55.808;37.078;2022-08-01T21:30:04;13.32;;;6.13;;
70213;SDS011;60138;55.808;37.078;2022-08-01T21:32:32;13.13;;;6.25;;
70213;SDS011;60138;55.808;37.078;2022-08-01T21:35:01;10.97;;;6.33;;
70213;SDS011;60138;55.808;37.078;2022-08-01T21:37:29;14.15;;;6.38;;
70213;SDS011;60138;55.808;37.078;2022-08-01T21:39:56;9.52;;;6.22;;
70213;SDS011;60138;55.808;37.078;2022-08-01T21:42:23;11.27;;;6.45;;
70213;SDS011;60138;55.808;37.078;2022-08-01T21:44:50;16.55;;;6.82;;
70213;SDS011;60138;55.808;37.078;2022-08-01T21:47:19;14.43;;;7.63;;
70213;SDS011;60138;55.808;37.078;2022-08-01T21:49:47;16.00;;;6.95;;
70213;SDS011;60138;55.808;37.078;2022-08-01T21:52:14;19.00;;;7.53;;
70213;SDS011;60138;55.808;37.078;2022-08-01T22:00:32;14.55;;;7.97;;
70213;SDS011;60138;55.808;37.078;2022-08-01T22:05:38;20.90;;;8.70;;
70213;SDS011;60138;55.808;37.078;2022-08-01T22:08:07;16.67;;;9.02;;
70213;SDS011;60138;55.808;37.078;2022-08-01T22:10:34;18.30;;;10.10;;
70213;SDS011;60138;55.808;37.078;2022-08-01T22:13:02;16.00;;;9.38;;
70213;SDS011;60138;55.808;37.078;2022-08-01T22:15:29;16.90;;;9.40;;
70213;SDS011;60138;55.808;37.078;2022-08-01T22:17:55;16.73;;;9.37;;
70213;SDS011;60138;55.808;37.078;2022-08-01T22:20:22;19.40;;;8.90;;
70213;SDS011;60138;55.808;37.078;2022-08-01T22:22:50;15.95;;;8.80;;
70213;SDS011;60138;55.808;37.078;2022-08-01T22:25:17;19.10;;;8.93;;
70213;SDS011;60138;55.808;37.078;2022-08-01T22:27:44;15.85;;;8.45;;
70213;SDS011;60138;55.808;37.078;2022-08-01T22:30:11;14.20;;;8.50;;
70213;SDS011;60138;55.808;37.078;2022-08-01T22:32:38;15.43;;;8.68;;
70213;SDS011;60138;55.808;37.078;2022-08-01T22:35:07;18.60;;;8.60;;
70213;SDS011;60138;55.808;37.078;2022-08-01T22:37:34;19.42;;;9.15;;
70213;SDS011;60138;55.808;37.078;2022-08-01T22:40:03;17.98;;;9.13;;
70213;SDS011;60138;55.808;37.078;2022-08-01T22:45:16;15.55;;;9.55;;
70213;SDS011;60138;55.808;37.078;2022-08-01T22:50:31;16.17;;;9.55;;
70213;SDS011;60138;55.808;37.078;2022-08-01T22:55:53;14.27;;;9.30;;
70213;SDS011;60138;55.808;37.078;2022-08-01T22:58:20;19.48;;;10.00;;
70213;SDS011;60138;55.808;37.078;2022-08-01T23:00:49;17.67;;;10.30;;
70213;SDS011;60138;55.808;37.078;2022-08-01T23:06:20;17.67;;;11.20;;
70213;SDS011;60138;55.808;37.078;2022-08-01T23:08:49;16.80;;;9.97;;
70213;SDS011;60138;55.808;37.078;2022-08-01T23:11:18;19.10;;;9.38;;
70213;SDS011;60138;55.808;37.078;2022-08-01T23:13:44;16.27;;;9.02;;
70213;SDS011;60138;55.808;37.078;2022-08-01T23:16:10;15.73;;;9.77;;
70213;SDS011;60138;55.808;37.078;2022-08-01T23:18:38;19.13;;;9.35;;
70213;SDS011;60138;55.808;37.078;2022-08-01T23:21:05;18.17;;;9.40;;
70213;SDS011;60138;55.808;37.078;2022-08-01T23:23:31;16.52;;;9.57;;
70213;SDS011;60138;55.808;37.078;2022-08-01T23:25:58;15.52;;;9.15;;
70213;SDS011;60138;55.808;37.078;2022-08-01T23:28:24;19.67;;;9.20;;
70213;SDS011;60138;55.808;37.078;2022-08-01T23:30:50;14.53;;;8.60;;
70213;SDS011;60138;55.808;37.078;2022-08-01T23:33:16;15.13;;;8.55;;
70213;SDS011;60138;55.808;37.078;2022-08-01T23:35:42;13.48;;;8.55;;
70213;SDS011;60138;55.808;37.078;2022-08-01T23:38:08;12.27;;;7.70;;
70213;SDS011;60138;55.808;37.078;2022-08-01T23:40:33;19.80;;;8.02;;
70213;SDS011;60138;55.808;37.078;2022-08-01T23:43:00;16.77;;;8.50;;
70213;SDS011;60138;55.808;37.078;2022-08-01T23:45:28;15.77;;;7.20;;